sensor_id;sensor_type;location;lat;lon;timestamp;P1;durP1;ratioP1;P2;durP2;ratioP2
81648;SDS011;71057;51.436;6.768;2023-08-12T00:00:28;18.52;;;11.45;;
81648;SDS011;71057;51.436;6.768;2023-08-12T00:02:54;11.20;;;8.52;;
81648;SDS011;71057;51.436;6.768;2023-08-12T00:05:19;17.00;;;10.17;;
81648;SDS011;71057;51.436;6.768;2023-08-12T00:07:45;16.17;;;11.03;;
81648;SDS011;71057;51.436;6.768;2023-08-12T00:10:10;12.93;;;9.60;;
81648;SDS011;71057;51.436;6.768;2023-08-12T00:12:36;14.27;;;9.95;;
81648;SDS011;71057;51.436;6.768;2023-08-12T00:15:02;17.40;;;11.00;;
81648;SDS011;71057;51.436;6.768;2023-08-12T00:17:28;24.40;;;15.00;;
81648;SDS011;71057;51.436;6.768;2023-08-12T00:19:53;17.02;;;11.38;;
81648;SDS011;71057;51.436;6.768;2023-08-12T00:22:18;15.70;;;11.67;;
81648;SDS011;71057;51.436;6.768;2023-08-12T00:24:43;14.50;;;11.00;;
81648;SDS011;71057;51.436;6.768;2023-08-12T00:27:09;15.48;;;11.48;;
81648;SDS011;71057;51.436;6.768;2023-08-12T00:29:35;14.93;;;11.55;;
81648;SDS011;71057;51.436;6.768;2023-08-12T00:32:00;24.08;;;14.15;;
81648;SDS011;71057;51.436;6.768;2023-08-12T00:34:26;17.10;;;12.20;;
81648;SDS011;71057;51.436;6.768;2023-08-12T00:36:51;20.43;;;13.03;;
81648;SDS011;71057;51.436;6.768;2023-08-12T00:39:16;17.97;;;11.47;;
81648;SDS011;71057;51.436;6.768;2023-08-12T00:41:41;22.63;;;14.37;;
81648;SDS011;71057;51.436;6.768;2023-08-12T00:44:06;17.17;;;11.63;;
81648;SDS011;71057;51.436;6.768;2023-08-12T00:46:32;21.37;;;12.77;;
81648;SDS011;71057;51.436;6.768;2023-08-12T00:48:57;19.13;;;11.35;;
81648;SDS011;71057;51.436;6.768;2023-08-12T00:51:23;23.03;;;13.40;;
81648;SDS011;71057;51.436;6.768;2023-08-12T00:53:48;15.63;;;11.70;;
81648;SDS011;71057;51.436;6.768;2023-08-12T00:56:15;23.55;;;14.77;;
81648;SDS011;71057;51.436;6.768;2023-08-12T00:58:40;26.52;;;15.73;;
81648;SDS011;71057;51.436;6.768;2023-08-12T01:01:06;23.25;;;13.95;;
81648;SDS011;71057;51.436;6.768;2023-08-12T01:03:32;15.10;;;11.60;;
81648;SDS011;71057;51.436;6.768;2023-08-12T01:05:57;18.20;;;13.10;;
81648;SDS011;71057;51.436;6.768;2023-08-12T01:08:23;21.30;;;13.60;;
81648;SDS011;71057;51.436;6.768;2023-08-12T01:10:52;25.65;;;14.30;;
81648;SDS011;71057;51.436;6.768;2023-08-12T01:13:26;15.40;;;11.40;;
81648;SDS011;71057;51.436;6.768;2023-08-12T01:15:55;20.73;;;14.88;;
81648;SDS011;71057;51.436;6.768;2023-08-12T01:18:21;14.30;;;9.85;;
81648;SDS011;71057;51.436;6.768;2023-08-12T01:20:48;23.70;;;15.73;;
81648;SDS011;71057;51.436;6.768;2023-08-12T01:23:14;20.02;;;13.30;;
81648;SDS011;71057;51.436;6.768;2023-08-12T01:25:39;13.98;;;10.18;;
81648;SDS011;71057;51.436;6.768;2023-08-12T01:28:05;16.92;;;10.68;;
81648;SDS011;71057;51.436;6.768;2023-08-12T01:30:30;19.25;;;12.50;;
81648;SDS011;71057;51.436;6.768;2023-08-12T01:32:57;23.60;;;15.25;;
81648;SDS011;71057;51.436;6.768;2023-08-12T01:35:26;14.75;;;11.88;;
81648;SDS011;71057;51.436;6.768;2023-08-12T01:37:52;15.73;;;12.00;;
81648;SDS011;71057;51.436;6.768;2023-08-12T01:40:18;20.77;;;14.35;;
81648;SDS011;71057;51.436;6.768;2023-08-12T01:42:44;14.73;;;11.63;;
81648;SDS011;71057;51.436;6.768;2023-08-12T01:45:09;21.25;;;12.52;;
81648;SDS011;71057;51.436;6.768;2023-08-12T01:47:35;19.75;;;13.10;;
81648;SDS011;71057;51.436;6.768;2023-08-12T01:50:00;25.77;;;15.53;;
81648;SDS011;71057;51.436;6.768;2023-08-12T01:52:26;25.07;;;16.30;;
81648;SDS011;71057;51.436;6.768;2023-08-12T01:54:51;21.77;;;12.60;;
81648;SDS011;71057;51.436;6.768;2023-08-12T01:57:16;21.17;;;13.87;;
81648;SDS011;71057;51.436;6.768;2023-08-12T01:59:42;18.05;;;12.02;;
81648;SDS011;71057;51.436;6.768;2023-08-12T02:02:08;20.13;;;12.93;;
81648;SDS011;71057;51.436;6.768;2023-08-12T02:04:34;18.67;;;13.47;;
81648;SDS011;71057;51.436;6.768;2023-08-12T02:06:59;21.97;;;13.00;;
81648;SDS011;71057;51.436;6.768;2023-08-12T02:09:24;21.70;;;14.40;;
81648;SDS011;71057;51.436;6.768;2023-08-12T02:11:49;21.60;;;14.67;;
81648;SDS011;71057;51.436;6.768;2023-08-12T02:14:14;16.47;;;11.67;;
81648;SDS011;71057;51.436;6.768;2023-08-12T02:16:40;15.50;;;11.43;;
81648;SDS011;71057;51.436;6.768;2023-08-12T02:19:05;18.07;;;12.23;;
81648;SDS011;71057;51.436;6.768;2023-08-12T02:21:30;16.50;;;11.77;;
81648;SDS011;71057;51.436;6.768;2023-08-12T02:23:55;18.37;;;11.27;;
81648;SDS011;71057;51.436;6.768;2023-08-12T02:26:20;18.77;;;12.30;;
81648;SDS011;71057;51.436;6.768;2023-08-12T02:28:46;18.07;;;13.03;;
81648;SDS011;71057;51.436;6.768;2023-08-12T02:31:11;18.00;;;12.23;;
81648;SDS011;71057;51.436;6.768;2023-08-12T02:33:36;18.23;;;13.00;;
81648;SDS011;71057;51.436;6.768;2023-08-12T02:36:01;14.77;;;11.70;;
81648;SDS011;71057;51.436;6.768;2023-08-12T02:38:26;14.67;;;11.80;;
81648;SDS011;71057;51.436;6.768;2023-08-12T02:40:51;18.43;;;12.13;;
81648;SDS011;71057;51.436;6.768;2023-08-12T02:43:17;17.87;;;11.07;;
81648;SDS011;71057;51.436;6.768;2023-08-12T02:45:42;17.55;;;12.45;;
81648;SDS011;71057;51.436;6.768;2023-08-12T02:48:09;15.52;;;11.38;;
81648;SDS011;71057;51.436;6.768;2023-08-12T02:50:34;22.20;;;13.50;;
81648;SDS011;71057;51.436;6.768;2023-08-12T02:52:59;20.77;;;14.70;;
81648;SDS011;71057;51.436;6.768;2023-08-12T02:55:24;16.77;;;10.97;;
81648;SDS011;71057;51.436;6.768;2023-08-12T02:57:49;17.27;;;12.13;;
81648;SDS011;71057;51.436;6.768;2023-08-12T03:00:15;17.60;;;12.70;;
81648;SDS011;71057;51.436;6.768;2023-08-12T03:02:43;18.08;;;12.52;;
81648;SDS011;71057;51.436;6.768;2023-08-12T03:05:08;19.02;;;13.40;;
81648;SDS011;71057;51.436;6.768;2023-08-12T03:07:33;20.63;;;12.67;;
81648;SDS011;71057;51.436;6.768;2023-08-12T03:09:59;20.13;;;12.53;;
81648;SDS011;71057;51.436;6.768;2023-08-12T03:12:24;21.77;;;14.00;;
81648;SDS011;71057;51.436;6.768;2023-08-12T03:14:49;21.63;;;13.53;;
81648;SDS011;71057;51.436;6.768;2023-08-12T03:17:14;17.73;;;12.63;;
81648;SDS011;71057;51.436;6.768;2023-08-12T03:19:39;20.07;;;12.67;;
81648;SDS011;71057;51.436;6.768;2023-08-12T03:22:04;18.70;;;13.57;;
81648;SDS011;71057;51.436;6.768;2023-08-12T03:24:30;16.23;;;12.27;;
81648;SDS011;71057;51.436;6.768;2023-08-12T03:26:55;21.83;;;13.73;;
81648;SDS011;71057;51.436;6.768;2023-08-12T03:29:20;18.13;;;12.43;;
81648;SDS011;71057;51.436;6.768;2023-08-12T03:31:45;19.00;;;12.93;;
81648;SDS011;71057;51.436;6.768;2023-08-12T03:34:11;18.27;;;13.73;;
81648;SDS011;71057;51.436;6.768;2023-08-12T03:36:36;24.03;;;15.70;;
81648;SDS011;71057;51.436;6.768;2023-08-12T03:39:01;26.03;;;15.53;;
81648;SDS011;71057;51.436;6.768;2023-08-12T03:41:26;24.77;;;15.80;;
81648;SDS011;71057;51.436;6.768;2023-08-12T03:43:51;21.90;;;15.17;;
81648;SDS011;71057;51.436;6.768;2023-08-12T03:46:17;21.27;;;13.63;;
81648;SDS011;71057;51.436;6.768;2023-08-12T03:48:42;24.92;;;14.75;;
81648;SDS011;71057;51.436;6.768;2023-08-12T03:51:07;23.13;;;15.83;;
81648;SDS011;71057;51.436;6.768;2023-08-12T03:53:32;29.17;;;18.20;;
81648;SDS011;71057;51.436;6.768;2023-08-12T03:55:57;22.03;;;15.03;;
81648;SDS011;71057;51.436;6.768;2023-08-12T03:58:23;27.07;;;16.53;;
81648;SDS011;71057;51.436;6.768;2023-08-12T04:00:48;24.67;;;16.53;;
81648;SDS011;71057;51.436;6.768;2023-08-12T04:03:13;24.83;;;17.17;;
81648;SDS011;71057;51.436;6.768;2023-08-12T04:05:46;33.90;;;19.43;;
81648;SDS011;71057;51.436;6.768;2023-08-12T04:08:11;23.33;;;15.68;;
81648;SDS011;71057;51.436;6.768;2023-08-12T04:10:36;26.63;;;17.97;;
81648;SDS011;71057;51.436;6.768;2023-08-12T04:13:01;26.37;;;17.53;;
81648;SDS011;71057;51.436;6.768;2023-08-12T04:15:27;20.35;;;14.82;;
81648;SDS011;71057;51.436;6.768;2023-08-12T04:17:52;23.03;;;15.53;;
81648;SDS011;71057;51.436;6.768;2023-08-12T04:20:17;19.50;;;13.73;;
81648;SDS011;71057;51.436;6.768;2023-08-12T04:22:43;24.63;;;15.00;;
81648;SDS011;71057;51.436;6.768;2023-08-12T04:25:08;26.77;;;17.53;;
81648;SDS011;71057;51.436;6.768;2023-08-12T04:27:33;26.37;;;16.27;;
81648;SDS011;71057;51.436;6.768;2023-08-12T04:29:58;20.20;;;14.30;;
81648;SDS011;71057;51.436;6.768;2023-08-12T04:32:23;20.63;;;14.07;;
81648;SDS011;71057;51.436;6.768;2023-08-12T04:34:49;24.50;;;17.30;;
81648;SDS011;71057;51.436;6.768;2023-08-12T04:37:14;21.67;;;15.80;;
81648;SDS011;71057;51.436;6.768;2023-08-12T04:39:39;21.23;;;15.20;;
81648;SDS011;71057;51.436;6.768;2023-08-12T04:42:05;18.83;;;13.73;;
81648;SDS011;71057;51.436;6.768;2023-08-12T04:44:30;25.05;;;16.77;;
81648;SDS011;71057;51.436;6.768;2023-08-12T04:46:55;19.30;;;13.73;;
81648;SDS011;71057;51.436;6.768;2023-08-12T04:49:20;24.15;;;16.30;;
81648;SDS011;71057;51.436;6.768;2023-08-12T04:51:46;21.08;;;15.75;;
81648;SDS011;71057;51.436;6.768;2023-08-12T04:54:11;25.43;;;16.63;;
81648;SDS011;71057;51.436;6.768;2023-08-12T04:56:36;25.63;;;16.60;;
81648;SDS011;71057;51.436;6.768;2023-08-12T04:59:01;18.63;;;13.40;;
81648;SDS011;71057;51.436;6.768;2023-08-12T05:01:27;20.30;;;14.20;;
81648;SDS011;71057;51.436;6.768;2023-08-12T05:03:52;18.03;;;13.53;;
81648;SDS011;71057;51.436;6.768;2023-08-12T05:06:17;17.23;;;12.83;;
81648;SDS011;71057;51.436;6.768;2023-08-12T05:08:43;20.77;;;13.13;;
81648;SDS011;71057;51.436;6.768;2023-08-12T05:11:08;19.20;;;13.43;;
81648;SDS011;71057;51.436;6.768;2023-08-12T05:13:33;21.03;;;14.33;;
81648;SDS011;71057;51.436;6.768;2023-08-12T05:15:58;17.93;;;10.70;;
81648;SDS011;71057;51.436;6.768;2023-08-12T05:18:23;20.03;;;13.50;;
81648;SDS011;71057;51.436;6.768;2023-08-12T05:20:49;17.67;;;13.23;;
81648;SDS011;71057;51.436;6.768;2023-08-12T05:23:15;20.85;;;13.07;;
81648;SDS011;71057;51.436;6.768;2023-08-12T05:25:41;18.87;;;12.20;;
81648;SDS011;71057;51.436;6.768;2023-08-12T05:28:06;16.77;;;11.57;;
81648;SDS011;71057;51.436;6.768;2023-08-12T05:30:32;16.83;;;13.35;;
81648;SDS011;71057;51.436;6.768;2023-08-12T05:32:57;15.37;;;11.37;;
81648;SDS011;71057;51.436;6.768;2023-08-12T05:35:22;19.77;;;13.90;;
81648;SDS011;71057;51.436;6.768;2023-08-12T05:37:48;16.77;;;12.17;;
81648;SDS011;71057;51.436;6.768;2023-08-12T05:40:13;15.20;;;10.67;;
81648;SDS011;71057;51.436;6.768;2023-08-12T05:42:38;15.50;;;11.77;;
81648;SDS011;71057;51.436;6.768;2023-08-12T05:45:03;13.40;;;10.17;;
81648;SDS011;71057;51.436;6.768;2023-08-12T05:47:29;13.82;;;10.38;;
81648;SDS011;71057;51.436;6.768;2023-08-12T05:49:54;13.47;;;11.23;;
81648;SDS011;71057;51.436;6.768;2023-08-12T05:52:19;18.83;;;10.23;;
81648;SDS011;71057;51.436;6.768;2023-08-12T05:54:44;15.03;;;9.97;;
81648;SDS011;71057;51.436;6.768;2023-08-12T05:57:10;10.63;;;8.50;;
81648;SDS011;71057;51.436;6.768;2023-08-12T05:59:35;13.10;;;10.33;;
81648;SDS011;71057;51.436;6.768;2023-08-12T06:02:00;14.63;;;10.27;;
81648;SDS011;71057;51.436;6.768;2023-08-12T06:04:25;12.80;;;10.27;;
81648;SDS011;71057;51.436;6.768;2023-08-12T06:06:50;13.87;;;9.80;;
81648;SDS011;71057;51.436;6.768;2023-08-12T06:09:16;14.10;;;11.30;;
81648;SDS011;71057;51.436;6.768;2023-08-12T06:11:41;12.57;;;8.87;;
81648;SDS011;71057;51.436;6.768;2023-08-12T06:14:06;13.55;;;9.13;;
81648;SDS011;71057;51.436;6.768;2023-08-12T06:16:31;16.43;;;11.40;;
81648;SDS011;71057;51.436;6.768;2023-08-12T06:18:56;14.17;;;10.70;;
81648;SDS011;71057;51.436;6.768;2023-08-12T06:21:22;13.47;;;11.17;;
81648;SDS011;71057;51.436;6.768;2023-08-12T06:23:47;12.47;;;9.87;;
81648;SDS011;71057;51.436;6.768;2023-08-12T06:26:12;12.30;;;9.07;;
81648;SDS011;71057;51.436;6.768;2023-08-12T06:28:37;15.53;;;11.13;;
81648;SDS011;71057;51.436;6.768;2023-08-12T06:31:02;15.10;;;10.73;;
81648;SDS011;71057;51.436;6.768;2023-08-12T06:33:30;14.60;;;10.57;;
81648;SDS011;71057;51.436;6.768;2023-08-12T06:35:56;13.93;;;10.32;;
81648;SDS011;71057;51.436;6.768;2023-08-12T06:38:21;14.00;;;10.38;;
81648;SDS011;71057;51.436;6.768;2023-08-12T06:40:46;11.90;;;9.87;;
81648;SDS011;71057;51.436;6.768;2023-08-12T06:43:12;12.60;;;10.82;;
81648;SDS011;71057;51.436;6.768;2023-08-12T06:45:37;12.17;;;10.33;;
81648;SDS011;71057;51.436;6.768;2023-08-12T06:48:02;12.60;;;9.90;;
81648;SDS011;71057;51.436;6.768;2023-08-12T06:50:27;14.15;;;9.95;;
81648;SDS011;71057;51.436;6.768;2023-08-12T06:52:53;13.70;;;10.00;;
81648;SDS011;71057;51.436;6.768;2023-08-12T06:55:18;12.90;;;10.70;;
81648;SDS011;71057;51.436;6.768;2023-08-12T06:57:43;13.00;;;10.30;;
81648;SDS011;71057;51.436;6.768;2023-08-12T07:00:08;12.93;;;9.90;;
81648;SDS011;71057;51.436;6.768;2023-08-12T07:02:34;11.93;;;9.52;;
81648;SDS011;71057;51.436;6.768;2023-08-12T07:04:59;10.70;;;8.70;;
81648;SDS011;71057;51.436;6.768;2023-08-12T07:07:24;12.03;;;9.03;;
81648;SDS011;71057;51.436;6.768;2023-08-12T07:09:49;11.70;;;9.07;;
81648;SDS011;71057;51.436;6.768;2023-08-12T07:12:14;9.88;;;8.52;;
81648;SDS011;71057;51.436;6.768;2023-08-12T07:14:39;9.73;;;8.73;;
81648;SDS011;71057;51.436;6.768;2023-08-12T07:17:05;12.63;;;10.13;;
81648;SDS011;71057;51.436;6.768;2023-08-12T07:19:30;10.93;;;9.47;;
81648;SDS011;71057;51.436;6.768;2023-08-12T07:21:55;12.00;;;10.60;;
81648;SDS011;71057;51.436;6.768;2023-08-12T07:24:20;10.73;;;9.07;;
81648;SDS011;71057;51.436;6.768;2023-08-12T07:26:45;10.13;;;9.03;;
81648;SDS011;71057;51.436;6.768;2023-08-12T07:29:11;10.40;;;8.57;;
81648;SDS011;71057;51.436;6.768;2023-08-12T07:34:07;10.98;;;9.07;;
81648;SDS011;71057;51.436;6.768;2023-08-12T07:36:32;11.77;;;8.07;;
81648;SDS011;71057;51.436;6.768;2023-08-12T07:38:58;10.00;;;8.63;;
81648;SDS011;71057;51.436;6.768;2023-08-12T07:41:23;11.85;;;8.38;;
81648;SDS011;71057;51.436;6.768;2023-08-12T07:43:52;10.20;;;7.82;;
81648;SDS011;71057;51.436;6.768;2023-08-12T07:46:17;10.00;;;9.00;;
81648;SDS011;71057;51.436;6.768;2023-08-12T07:48:43;9.50;;;7.53;;
81648;SDS011;71057;51.436;6.768;2023-08-12T07:51:08;8.82;;;6.93;;
81648;SDS011;71057;51.436;6.768;2023-08-12T07:53:34;10.88;;;7.13;;
81648;SDS011;71057;51.436;6.768;2023-08-12T07:55:59;6.57;;;5.57;;
81648;SDS011;71057;51.436;6.768;2023-08-12T07:58:24;6.83;;;6.07;;
81648;SDS011;71057;51.436;6.768;2023-08-12T08:00:52;9.90;;;7.20;;
81648;SDS011;71057;51.436;6.768;2023-08-12T08:03:17;8.05;;;6.43;;
81648;SDS011;71057;51.436;6.768;2023-08-12T08:05:42;7.23;;;6.47;;
81648;SDS011;71057;51.436;6.768;2023-08-12T08:08:10;7.65;;;6.65;;
81648;SDS011;71057;51.436;6.768;2023-08-12T08:10:35;9.73;;;7.07;;
81648;SDS011;71057;51.436;6.768;2023-08-12T08:13:00;8.43;;;5.93;;
81648;SDS011;71057;51.436;6.768;2023-08-12T08:15:26;6.77;;;5.33;;
81648;SDS011;71057;51.436;6.768;2023-08-12T08:17:51;8.00;;;6.27;;
81648;SDS011;71057;51.436;6.768;2023-08-12T08:20:16;7.43;;;5.87;;
81648;SDS011;71057;51.436;6.768;2023-08-12T08:22:41;6.47;;;5.77;;
81648;SDS011;71057;51.436;6.768;2023-08-12T08:25:06;6.77;;;5.67;;
81648;SDS011;71057;51.436;6.768;2023-08-12T08:27:32;6.25;;;5.65;;
81648;SDS011;71057;51.436;6.768;2023-08-12T08:29:57;6.17;;;5.57;;
81648;SDS011;71057;51.436;6.768;2023-08-12T08:32:23;6.30;;;5.68;;
81648;SDS011;71057;51.436;6.768;2023-08-12T08:34:48;6.10;;;5.00;;
81648;SDS011;71057;51.436;6.768;2023-08-12T08:37:13;6.63;;;4.97;;
81648;SDS011;71057;51.436;6.768;2023-08-12T08:39:38;6.37;;;4.60;;
81648;SDS011;71057;51.436;6.768;2023-08-12T08:42:04;5.57;;;4.33;;
81648;SDS011;71057;51.436;6.768;2023-08-12T08:44:30;8.20;;;4.85;;
81648;SDS011;71057;51.436;6.768;2023-08-12T08:46:56;6.05;;;4.72;;
81648;SDS011;71057;51.436;6.768;2023-08-12T08:49:22;6.60;;;5.50;;
81648;SDS011;71057;51.436;6.768;2023-08-12T08:51:48;5.93;;;4.10;;
81648;SDS011;71057;51.436;6.768;2023-08-12T08:54:14;7.60;;;4.88;;
81648;SDS011;71057;51.436;6.768;2023-08-12T08:56:40;6.65;;;5.18;;
81648;SDS011;71057;51.436;6.768;2023-08-12T08:59:05;5.97;;;5.10;;
81648;SDS011;71057;51.436;6.768;2023-08-12T09:01:30;7.37;;;4.80;;
81648;SDS011;71057;51.436;6.768;2023-08-12T09:03:56;6.55;;;5.00;;
81648;SDS011;71057;51.436;6.768;2023-08-12T09:06:22;5.82;;;4.68;;
81648;SDS011;71057;51.436;6.768;2023-08-12T09:08:49;5.93;;;4.30;;
81648;SDS011;71057;51.436;6.768;2023-08-12T09:11:16;5.28;;;4.72;;
81648;SDS011;71057;51.436;6.768;2023-08-12T09:13:42;6.65;;;5.32;;
81648;SDS011;71057;51.436;6.768;2023-08-12T09:16:07;5.65;;;4.47;;
81648;SDS011;71057;51.436;6.768;2023-08-12T09:18:33;6.40;;;5.17;;
81648;SDS011;71057;51.436;6.768;2023-08-12T09:20:58;6.03;;;4.37;;
81648;SDS011;71057;51.436;6.768;2023-08-12T09:23:23;4.70;;;3.97;;
81648;SDS011;71057;51.436;6.768;2023-08-12T09:25:50;4.82;;;4.32;;
81648;SDS011;71057;51.436;6.768;2023-08-12T09:28:16;8.90;;;5.20;;
81648;SDS011;71057;51.436;6.768;2023-08-12T09:30:41;8.03;;;6.07;;
81648;SDS011;71057;51.436;6.768;2023-08-12T09:33:07;10.50;;;6.87;;
81648;SDS011;71057;51.436;6.768;2023-08-12T09:35:33;12.18;;;7.95;;
81648;SDS011;71057;51.436;6.768;2023-08-12T09:38:00;12.07;;;7.95;;
81648;SDS011;71057;51.436;6.768;2023-08-12T09:40:25;14.25;;;9.02;;
81648;SDS011;71057;51.436;6.768;2023-08-12T09:42:51;12.20;;;7.93;;
81648;SDS011;71057;51.436;6.768;2023-08-12T09:45:16;11.38;;;8.32;;
81648;SDS011;71057;51.436;6.768;2023-08-12T09:47:45;9.32;;;6.68;;
81648;SDS011;71057;51.436;6.768;2023-08-12T09:50:10;7.40;;;6.07;;
81648;SDS011;71057;51.436;6.768;2023-08-12T09:52:35;7.67;;;5.50;;
81648;SDS011;71057;51.436;6.768;2023-08-12T09:55:01;6.83;;;4.33;;
81648;SDS011;71057;51.436;6.768;2023-08-12T09:57:30;5.32;;;3.88;;
81648;SDS011;71057;51.436;6.768;2023-08-12T09:59:58;5.68;;;3.58;;
81648;SDS011;71057;51.436;6.768;2023-08-12T10:02:24;3.97;;;2.83;;
81648;SDS011;71057;51.436;6.768;2023-08-12T10:04:49;3.03;;;2.65;;
81648;SDS011;71057;51.436;6.768;2023-08-12T10:07:15;3.38;;;2.72;;
81648;SDS011;71057;51.436;6.768;2023-08-12T10:09:42;3.42;;;2.20;;
81648;SDS011;71057;51.436;6.768;2023-08-12T10:12:08;4.13;;;2.05;;
81648;SDS011;71057;51.436;6.768;2023-08-12T10:14:34;3.63;;;2.33;;
81648;SDS011;71057;51.436;6.768;2023-08-12T10:16:59;4.20;;;2.17;;
81648;SDS011;71057;51.436;6.768;2023-08-12T10:19:24;2.17;;;1.67;;
81648;SDS011;71057;51.436;6.768;2023-08-12T10:21:50;2.58;;;1.80;;
81648;SDS011;71057;51.436;6.768;2023-08-12T10:24:19;2.42;;;1.80;;
81648;SDS011;71057;51.436;6.768;2023-08-12T10:26:45;3.20;;;1.80;;
81648;SDS011;71057;51.436;6.768;2023-08-12T10:29:10;2.60;;;1.88;;
81648;SDS011;71057;51.436;6.768;2023-08-12T10:31:37;2.00;;;1.73;;
81648;SDS011;71057;51.436;6.768;2023-08-12T10:34:03;3.25;;;2.40;;
81648;SDS011;71057;51.436;6.768;2023-08-12T10:36:28;2.15;;;1.65;;
81648;SDS011;71057;51.436;6.768;2023-08-12T10:38:53;2.88;;;1.90;;
81648;SDS011;71057;51.436;6.768;2023-08-12T10:41:19;3.23;;;1.70;;
81648;SDS011;71057;51.436;6.768;2023-08-12T10:43:52;2.22;;;1.60;;
81648;SDS011;71057;51.436;6.768;2023-08-12T10:46:39;2.65;;;2.38;;
81648;SDS011;71057;51.436;6.768;2023-08-12T10:51:38;2.97;;;2.00;;
81648;SDS011;71057;51.436;6.768;2023-08-12T10:54:09;3.40;;;2.60;;
81648;SDS011;71057;51.436;6.768;2023-08-12T10:57:21;4.32;;;2.85;;
81648;SDS011;71057;51.436;6.768;2023-08-12T10:59:46;5.30;;;3.10;;
81648;SDS011;71057;51.436;6.768;2023-08-12T11:02:07;5.28;;;3.20;;
81648;SDS011;71057;51.436;6.768;2023-08-12T11:04:36;3.53;;;2.83;;
81648;SDS011;71057;51.436;6.768;2023-08-12T11:07:13;3.08;;;2.75;;
81648;SDS011;71057;51.436;6.768;2023-08-12T11:09:39;3.80;;;2.90;;
81648;SDS011;71057;51.436;6.768;2023-08-12T11:12:04;2.87;;;2.23;;
81648;SDS011;71057;51.436;6.768;2023-08-12T11:14:29;2.73;;;1.90;;
81648;SDS011;71057;51.436;6.768;2023-08-12T11:16:54;2.37;;;2.00;;
81648;SDS011;71057;51.436;6.768;2023-08-12T11:19:21;3.03;;;1.90;;
81648;SDS011;71057;51.436;6.768;2023-08-12T11:21:46;3.65;;;2.10;;
81648;SDS011;71057;51.436;6.768;2023-08-12T11:24:12;3.20;;;1.95;;
81648;SDS011;71057;51.436;6.768;2023-08-12T11:26:37;2.07;;;1.80;;
81648;SDS011;71057;51.436;6.768;2023-08-12T11:29:08;1.92;;;1.50;;
81648;SDS011;71057;51.436;6.768;2023-08-12T11:31:33;2.92;;;1.60;;
81648;SDS011;71057;51.436;6.768;2023-08-12T11:33:59;2.13;;;1.70;;
81648;SDS011;71057;51.436;6.768;2023-08-12T11:36:24;2.13;;;1.73;;
81648;SDS011;71057;51.436;6.768;2023-08-12T11:38:49;2.40;;;1.90;;
81648;SDS011;71057;51.436;6.768;2023-08-12T11:41:17;2.73;;;1.70;;
81648;SDS011;71057;51.436;6.768;2023-08-12T11:43:42;4.15;;;1.80;;
81648;SDS011;71057;51.436;6.768;2023-08-12T11:46:07;3.07;;;2.53;;
81648;SDS011;71057;51.436;6.768;2023-08-12T11:48:32;2.93;;;2.40;;
81648;SDS011;71057;51.436;6.768;2023-08-12T11:50:57;3.80;;;2.20;;
81648;SDS011;71057;51.436;6.768;2023-08-12T11:53:23;4.40;;;2.47;;
81648;SDS011;71057;51.436;6.768;2023-08-12T11:55:48;4.57;;;2.67;;
81648;SDS011;71057;51.436;6.768;2023-08-12T11:58:13;3.10;;;2.60;;
81648;SDS011;71057;51.436;6.768;2023-08-12T12:00:43;4.20;;;3.22;;
81648;SDS011;71057;51.436;6.768;2023-08-12T12:03:08;4.37;;;3.23;;
81648;SDS011;71057;51.436;6.768;2023-08-12T12:05:33;4.57;;;3.93;;
81648;SDS011;71057;51.436;6.768;2023-08-12T12:07:59;4.70;;;4.07;;
81648;SDS011;71057;51.436;6.768;2023-08-12T12:10:29;6.25;;;4.47;;
81648;SDS011;71057;51.436;6.768;2023-08-12T12:12:55;6.22;;;5.00;;
81648;SDS011;71057;51.436;6.768;2023-08-12T12:15:20;6.35;;;4.32;;
81648;SDS011;71057;51.436;6.768;2023-08-12T12:17:46;6.37;;;5.20;;
81648;SDS011;71057;51.436;6.768;2023-08-12T12:20:11;17.90;;;9.15;;
81648;SDS011;71057;51.436;6.768;2023-08-12T12:22:37;11.37;;;7.20;;
81648;SDS011;71057;51.436;6.768;2023-08-12T12:25:07;14.70;;;9.60;;
81648;SDS011;71057;51.436;6.768;2023-08-12T12:27:33;9.52;;;7.10;;
81648;SDS011;71057;51.436;6.768;2023-08-12T12:29:59;8.57;;;6.25;;
81648;SDS011;71057;51.436;6.768;2023-08-12T12:32:24;7.78;;;6.53;;
81648;SDS011;71057;51.436;6.768;2023-08-12T12:34:49;7.47;;;6.10;;
81648;SDS011;71057;51.436;6.768;2023-08-12T12:37:14;6.77;;;5.93;;
81648;SDS011;71057;51.436;6.768;2023-08-12T12:39:40;6.00;;;5.40;;
81648;SDS011;71057;51.436;6.768;2023-08-12T12:42:05;5.88;;;5.00;;
81648;SDS011;71057;51.436;6.768;2023-08-12T12:44:30;6.45;;;5.55;;
81648;SDS011;71057;51.436;6.768;2023-08-12T12:46:56;6.53;;;5.17;;
81648;SDS011;71057;51.436;6.768;2023-08-12T12:49:21;6.97;;;6.00;;
81648;SDS011;71057;51.436;6.768;2023-08-12T12:51:46;7.57;;;6.15;;
81648;SDS011;71057;51.436;6.768;2023-08-12T12:54:12;7.30;;;5.63;;
81648;SDS011;71057;51.436;6.768;2023-08-12T12:56:37;7.97;;;6.67;;
81648;SDS011;71057;51.436;6.768;2023-08-12T12:59:02;8.50;;;6.40;;
81648;SDS011;71057;51.436;6.768;2023-08-12T13:01:27;7.13;;;5.73;;
81648;SDS011;71057;51.436;6.768;2023-08-12T13:03:52;8.57;;;6.53;;
81648;SDS011;71057;51.436;6.768;2023-08-12T13:06:18;9.17;;;6.60;;
81648;SDS011;71057;51.436;6.768;2023-08-12T13:08:43;8.90;;;6.10;;
81648;SDS011;71057;51.436;6.768;2023-08-12T13:11:08;9.83;;;7.20;;
81648;SDS011;71057;51.436;6.768;2023-08-12T13:13:33;8.60;;;6.73;;
81648;SDS011;71057;51.436;6.768;2023-08-12T13:15:58;9.27;;;7.50;;
81648;SDS011;71057;51.436;6.768;2023-08-12T13:18:23;9.43;;;7.70;;
81648;SDS011;71057;51.436;6.768;2023-08-12T13:20:49;12.27;;;7.43;;
81648;SDS011;71057;51.436;6.768;2023-08-12T13:23:14;6.07;;;5.13;;
81648;SDS011;71057;51.436;6.768;2023-08-12T13:25:40;5.88;;;4.10;;
81648;SDS011;71057;51.436;6.768;2023-08-12T13:28:05;3.47;;;3.07;;
81648;SDS011;71057;51.436;6.768;2023-08-12T13:30:30;5.63;;;4.30;;
81648;SDS011;71057;51.436;6.768;2023-08-12T13:32:55;6.87;;;5.40;;
81648;SDS011;71057;51.436;6.768;2023-08-12T13:35:21;6.43;;;5.28;;
81648;SDS011;71057;51.436;6.768;2023-08-12T13:37:46;6.88;;;6.18;;
81648;SDS011;71057;51.436;6.768;2023-08-12T13:40:12;6.38;;;5.40;;
81648;SDS011;71057;51.436;6.768;2023-08-12T13:42:37;7.53;;;6.10;;
81648;SDS011;71057;51.436;6.768;2023-08-12T13:45:03;6.93;;;6.22;;
81648;SDS011;71057;51.436;6.768;2023-08-12T13:47:29;5.75;;;5.13;;
81648;SDS011;71057;51.436;6.768;2023-08-12T13:49:54;5.47;;;4.95;;
81648;SDS011;71057;51.436;6.768;2023-08-12T13:52:20;5.77;;;5.17;;
81648;SDS011;71057;51.436;6.768;2023-08-12T13:54:45;6.43;;;5.83;;
81648;SDS011;71057;51.436;6.768;2023-08-12T13:57:10;7.53;;;5.53;;
81648;SDS011;71057;51.436;6.768;2023-08-12T13:59:36;7.05;;;6.25;;
81648;SDS011;71057;51.436;6.768;2023-08-12T14:02:01;8.80;;;6.90;;
81648;SDS011;71057;51.436;6.768;2023-08-12T14:04:28;6.90;;;6.20;;
81648;SDS011;71057;51.436;6.768;2023-08-12T14:06:53;5.13;;;4.35;;
81648;SDS011;71057;51.436;6.768;2023-08-12T14:09:18;5.23;;;4.07;;
81648;SDS011;71057;51.436;6.768;2023-08-12T14:11:44;6.72;;;5.22;;
81648;SDS011;71057;51.436;6.768;2023-08-12T14:14:10;4.43;;;3.97;;
81648;SDS011;71057;51.436;6.768;2023-08-12T14:16:35;4.13;;;3.73;;
81648;SDS011;71057;51.436;6.768;2023-08-12T14:19:00;4.47;;;4.07;;
81648;SDS011;71057;51.436;6.768;2023-08-12T14:21:25;4.27;;;3.87;;
81648;SDS011;71057;51.436;6.768;2023-08-12T14:23:50;4.83;;;4.27;;
81648;SDS011;71057;51.436;6.768;2023-08-12T14:26:16;6.53;;;5.67;;
81648;SDS011;71057;51.436;6.768;2023-08-12T14:28:41;6.43;;;5.00;;